Terminal Aerodrome Forecast
Issued by NWS

Home | Current Version | Previous Version | Text Only | Print | Product List | Glossary On
Versions: 1 2 3 4 5 6 7 8 9 10 11 12 13 14 15 16 17 18 19
000
FTUS43 KSGF 021100
TAFJLN
TAF
KJLN 021120Z 0212/0312 17010KT 6SM -TSRA BR SCT030 BKN040CB
      TEMPO 0212/0215 1SM +TSRA BR BKN020CB
     FM021700 20012KT P6SM VCTS SCT030 BKN040CB
      TEMPO 0219/0223 VRB25KT 1SM +TSRA OVC015CB
     FM030000 27014KT P6SM VCSH OVC015
     FM030200 31015KT P6SM OVC015
     FM030600 31015KT P6SM BKN010=

USA.gov is the U.S. government's official web portal to all federal, state and local government web resources and services.